Destinations Humberside Airport

Humberside Airport (EGNJ / HUY)

Flights to Humberside Airport

Flight number From ETE Dispatch
SPY-2292 EGFF Cardiff International Airport 01:00

Flights from Humberside Airport

Flight number To ETE Dispatch
SPY-2293 EGFF Cardiff International Airport 01:00
About

Humberside Airport facts

Humberside Airport is located in Humberside at an elevation of 36.9 meters or 121 feet.

Currently, Speedy Airlines serves 2 flights to and from Humberside Airport.

Detailed airport info

Route map

Weather

Current weather

METAR

METAR

Metar data retrieved Sunday, 21 July 2024 at 20:25 UTC

EGNJ 211950Z 27003KT 9999 FEW032 19/11 Q1012
Wind Temperature
3 kt 19c